sensor_id;sensor_type;location;lat;lon;timestamp;P1;durP1;ratioP1;P2;durP2;ratioP2
23362;SDS011;11853;48.080;11.960;2023-02-01T00:00:46;3.40;;;3.10;;
23362;SDS011;11853;48.080;11.960;2023-02-01T00:03:13;3.33;;;2.92;;
23362;SDS011;11853;48.080;11.960;2023-02-01T00:05:39;4.13;;;3.05;;
23362;SDS011;11853;48.080;11.960;2023-02-01T00:08:05;3.65;;;3.28;;
23362;SDS011;11853;48.080;11.960;2023-02-01T00:10:31;3.45;;;3.05;;
23362;SDS011;11853;48.080;11.960;2023-02-01T00:12:56;6.20;;;3.30;;
23362;SDS011;11853;48.080;11.960;2023-02-01T00:15:22;4.82;;;3.42;;
23362;SDS011;11853;48.080;11.960;2023-02-01T00:17:51;3.80;;;3.03;;
23362;SDS011;11853;48.080;11.960;2023-02-01T00:20:19;3.53;;;2.92;;
23362;SDS011;11853;48.080;11.960;2023-02-01T00:22:44;3.80;;;2.80;;
23362;SDS011;11853;48.080;11.960;2023-02-01T00:25:10;4.70;;;3.22;;
23362;SDS011;11853;48.080;11.960;2023-02-01T00:27:36;2.90;;;2.63;;
23362;SDS011;11853;48.080;11.960;2023-02-01T00:30:01;4.22;;;3.20;;
23362;SDS011;11853;48.080;11.960;2023-02-01T00:32:28;3.58;;;3.08;;
23362;SDS011;11853;48.080;11.960;2023-02-01T00:34:54;3.10;;;2.80;;
23362;SDS011;11853;48.080;11.960;2023-02-01T00:37:19;3.17;;;2.88;;
23362;SDS011;11853;48.080;11.960;2023-02-01T00:39:45;3.17;;;2.80;;
23362;SDS011;11853;48.080;11.960;2023-02-01T00:42:11;3.22;;;2.92;;
23362;SDS011;11853;48.080;11.960;2023-02-01T00:44:36;3.50;;;2.83;;
23362;SDS011;11853;48.080;11.960;2023-02-01T00:47:02;4.70;;;2.67;;
23362;SDS011;11853;48.080;11.960;2023-02-01T00:49:28;3.38;;;2.88;;
23362;SDS011;11853;48.080;11.960;2023-02-01T00:51:54;3.78;;;2.75;;
23362;SDS011;11853;48.080;11.960;2023-02-01T00:54:20;2.72;;;2.53;;
23362;SDS011;11853;48.080;11.960;2023-02-01T00:56:46;3.00;;;2.70;;
23362;SDS011;11853;48.080;11.960;2023-02-01T00:59:12;3.08;;;2.78;;
23362;SDS011;11853;48.080;11.960;2023-02-01T01:01:38;3.22;;;2.92;;
23362;SDS011;11853;48.080;11.960;2023-02-01T01:04:03;3.95;;;3.13;;
23362;SDS011;11853;48.080;11.960;2023-02-01T01:06:30;4.00;;;2.80;;
23362;SDS011;11853;48.080;11.960;2023-02-01T01:08:58;3.45;;;2.47;;
23362;SDS011;11853;48.080;11.960;2023-02-01T01:11:26;3.35;;;2.75;;
23362;SDS011;11853;48.080;11.960;2023-02-01T01:13:54;3.00;;;2.70;;
23362;SDS011;11853;48.080;11.960;2023-02-01T01:16:21;2.90;;;2.60;;
23362;SDS011;11853;48.080;11.960;2023-02-01T01:18:48;5.43;;;3.10;;
23362;SDS011;11853;48.080;11.960;2023-02-01T01:21:14;3.17;;;2.65;;
23362;SDS011;11853;48.080;11.960;2023-02-01T01:23:42;3.33;;;2.80;;
23362;SDS011;11853;48.080;11.960;2023-02-01T01:26:09;3.28;;;2.97;;
23362;SDS011;11853;48.080;11.960;2023-02-01T01:28:39;4.60;;;3.37;;
23362;SDS011;11853;48.080;11.960;2023-02-01T01:31:08;3.42;;;3.13;;
23362;SDS011;11853;48.080;11.960;2023-02-01T01:33:35;3.97;;;3.20;;
23362;SDS011;11853;48.080;11.960;2023-02-01T01:36:04;5.32;;;3.42;;
23362;SDS011;11853;48.080;11.960;2023-02-01T01:38:31;6.18;;;3.50;;
23362;SDS011;11853;48.080;11.960;2023-02-01T01:40:57;3.95;;;2.83;;
23362;SDS011;11853;48.080;11.960;2023-02-01T01:43:23;4.05;;;3.40;;
23362;SDS011;11853;48.080;11.960;2023-02-01T01:45:49;3.45;;;3.15;;
23362;SDS011;11853;48.080;11.960;2023-02-01T01:48:18;4.43;;;3.50;;
23362;SDS011;11853;48.080;11.960;2023-02-01T01:50:52;3.30;;;3.00;;
23362;SDS011;11853;48.080;11.960;2023-02-01T01:53:24;3.08;;;2.88;;
23362;SDS011;11853;48.080;11.960;2023-02-01T01:55:53;4.68;;;3.72;;
23362;SDS011;11853;48.080;11.960;2023-02-01T01:58:21;3.40;;;3.10;;
23362;SDS011;11853;48.080;11.960;2023-02-01T02:00:50;4.85;;;3.40;;
23362;SDS011;11853;48.080;11.960;2023-02-01T02:03:19;3.63;;;3.25;;
23362;SDS011;11853;48.080;11.960;2023-02-01T02:05:49;3.55;;;3.25;;
23362;SDS011;11853;48.080;11.960;2023-02-01T02:08:16;3.35;;;3.03;;
23362;SDS011;11853;48.080;11.960;2023-02-01T02:10:45;3.40;;;3.10;;
23362;SDS011;11853;48.080;11.960;2023-02-01T02:13:58;4.03;;;3.50;;
23362;SDS011;11853;48.080;11.960;2023-02-01T02:19:22;3.67;;;2.90;;
23362;SDS011;11853;48.080;11.960;2023-02-01T02:24:58;3.80;;;3.50;;
23362;SDS011;11853;48.080;11.960;2023-02-01T02:27:51;4.05;;;3.63;;
23362;SDS011;11853;48.080;11.960;2023-02-01T02:33:20;4.10;;;3.35;;
23362;SDS011;11853;48.080;11.960;2023-02-01T02:36:19;5.45;;;4.10;;
23362;SDS011;11853;48.080;11.960;2023-02-01T02:39:11;4.18;;;3.78;;
23362;SDS011;11853;48.080;11.960;2023-02-01T02:42:39;4.05;;;3.65;;
23362;SDS011;11853;48.080;11.960;2023-02-01T02:45:21;6.05;;;4.25;;
23362;SDS011;11853;48.080;11.960;2023-02-01T02:48:26;5.10;;;4.10;;
23362;SDS011;11853;48.080;11.960;2023-02-01T02:51:13;4.10;;;3.70;;
23362;SDS011;11853;48.080;11.960;2023-02-01T02:54:12;4.40;;;3.90;;
23362;SDS011;11853;48.080;11.960;2023-02-01T02:57:02;4.60;;;4.05;;
23362;SDS011;11853;48.080;11.960;2023-02-01T02:59:50;5.95;;;4.00;;
23362;SDS011;11853;48.080;11.960;2023-02-01T03:02:36;4.55;;;4.00;;
23362;SDS011;11853;48.080;11.960;2023-02-01T03:05:21;4.55;;;3.95;;
23362;SDS011;11853;48.080;11.960;2023-02-01T03:13:33;4.00;;;3.65;;
23362;SDS011;11853;48.080;11.960;2023-02-01T03:16:07;5.68;;;4.63;;
23362;SDS011;11853;48.080;11.960;2023-02-01T03:19:01;3.97;;;3.55;;
23362;SDS011;11853;48.080;11.960;2023-02-01T03:21:33;5.22;;;3.80;;
23362;SDS011;11853;48.080;11.960;2023-02-01T03:24:05;5.20;;;3.70;;
23362;SDS011;11853;48.080;11.960;2023-02-01T03:26:37;4.03;;;3.63;;
23362;SDS011;11853;48.080;11.960;2023-02-01T03:29:11;4.05;;;3.75;;
23362;SDS011;11853;48.080;11.960;2023-02-01T03:31:41;4.20;;;3.78;;
23362;SDS011;11853;48.080;11.960;2023-02-01T03:34:07;4.15;;;3.75;;
23362;SDS011;11853;48.080;11.960;2023-02-01T03:36:45;4.78;;;4.05;;
23362;SDS011;11853;48.080;11.960;2023-02-01T03:39:46;5.05;;;3.63;;
23362;SDS011;11853;48.080;11.960;2023-02-01T03:42:19;4.25;;;3.85;;
23362;SDS011;11853;48.080;11.960;2023-02-01T03:44:51;7.63;;;4.13;;
23362;SDS011;11853;48.080;11.960;2023-02-01T03:47:23;3.92;;;3.58;;
23362;SDS011;11853;48.080;11.960;2023-02-01T03:49:55;6.28;;;4.13;;
23362;SDS011;11853;48.080;11.960;2023-02-01T03:52:30;4.45;;;3.67;;
23362;SDS011;11853;48.080;11.960;2023-02-01T03:55:03;5.00;;;4.00;;
23362;SDS011;11853;48.080;11.960;2023-02-01T03:57:35;3.72;;;3.40;;
23362;SDS011;11853;48.080;11.960;2023-02-01T04:00:23;3.60;;;3.30;;
23362;SDS011;11853;48.080;11.960;2023-02-01T04:02:50;4.35;;;3.30;;
23362;SDS011;11853;48.080;11.960;2023-02-01T04:05:17;3.50;;;3.20;;
23362;SDS011;11853;48.080;11.960;2023-02-01T04:07:43;4.50;;;3.15;;
23362;SDS011;11853;48.080;11.960;2023-02-01T04:10:09;4.13;;;3.35;;
23362;SDS011;11853;48.080;11.960;2023-02-01T04:12:36;3.67;;;3.35;;
23362;SDS011;11853;48.080;11.960;2023-02-01T04:15:02;5.10;;;3.80;;
23362;SDS011;11853;48.080;11.960;2023-02-01T04:17:28;4.20;;;3.40;;
23362;SDS011;11853;48.080;11.960;2023-02-01T04:19:54;5.07;;;3.42;;
23362;SDS011;11853;48.080;11.960;2023-02-01T04:22:20;4.22;;;3.47;;
23362;SDS011;11853;48.080;11.960;2023-02-01T04:24:45;3.97;;;3.58;;
23362;SDS011;11853;48.080;11.960;2023-02-01T04:27:11;3.72;;;3.35;;
23362;SDS011;11853;48.080;11.960;2023-02-01T04:29:37;3.60;;;3.30;;
23362;SDS011;11853;48.080;11.960;2023-02-01T04:32:02;3.50;;;3.20;;
23362;SDS011;11853;48.080;11.960;2023-02-01T04:34:28;3.67;;;3.33;;
23362;SDS011;11853;48.080;11.960;2023-02-01T04:36:54;4.30;;;3.50;;
23362;SDS011;11853;48.080;11.960;2023-02-01T04:39:19;4.05;;;3.00;;
23362;SDS011;11853;48.080;11.960;2023-02-01T04:41:45;3.40;;;3.10;;
23362;SDS011;11853;48.080;11.960;2023-02-01T04:44:12;4.47;;;3.83;;
23362;SDS011;11853;48.080;11.960;2023-02-01T04:46:40;4.18;;;3.72;;
23362;SDS011;11853;48.080;11.960;2023-02-01T04:49:05;4.63;;;3.53;;
23362;SDS011;11853;48.080;11.960;2023-02-01T04:51:31;3.00;;;2.80;;
23362;SDS011;11853;48.080;11.960;2023-02-01T04:53:57;3.80;;;3.45;;
23362;SDS011;11853;48.080;11.960;2023-02-01T04:56:23;3.63;;;3.33;;
23362;SDS011;11853;48.080;11.960;2023-02-01T04:58:48;3.88;;;3.20;;
23362;SDS011;11853;48.080;11.960;2023-02-01T05:01:14;4.85;;;3.15;;
23362;SDS011;11853;48.080;11.960;2023-02-01T05:03:39;4.95;;;3.33;;
23362;SDS011;11853;48.080;11.960;2023-02-01T05:06:05;3.97;;;3.40;;
23362;SDS011;11853;48.080;11.960;2023-02-01T05:08:30;4.65;;;3.50;;
23362;SDS011;11853;48.080;11.960;2023-02-01T05:10:57;4.45;;;3.50;;
23362;SDS011;11853;48.080;11.960;2023-02-01T05:13:23;4.07;;;3.53;;
23362;SDS011;11853;48.080;11.960;2023-02-01T05:16:28;4.13;;;3.67;;
23362;SDS011;11853;48.080;11.960;2023-02-01T05:18:53;3.95;;;3.55;;
23362;SDS011;11853;48.080;11.960;2023-02-01T05:21:19;3.88;;;3.47;;
23362;SDS011;11853;48.080;11.960;2023-02-01T05:23:45;4.75;;;3.70;;
23362;SDS011;11853;48.080;11.960;2023-02-01T05:26:29;4.05;;;3.45;;
23362;SDS011;11853;48.080;11.960;2023-02-01T05:28:55;5.93;;;3.42;;
23362;SDS011;11853;48.080;11.960;2023-02-01T05:31:20;3.60;;;3.25;;
23362;SDS011;11853;48.080;11.960;2023-02-01T05:33:47;3.85;;;3.47;;
23362;SDS011;11853;48.080;11.960;2023-02-01T05:36:13;4.43;;;3.80;;
23362;SDS011;11853;48.080;11.960;2023-02-01T05:38:58;3.97;;;3.55;;
23362;SDS011;11853;48.080;11.960;2023-02-01T05:41:24;5.40;;;3.58;;
23362;SDS011;11853;48.080;11.960;2023-02-01T05:43:50;4.35;;;3.90;;
23362;SDS011;11853;48.080;11.960;2023-02-01T05:46:16;4.70;;;3.65;;
23362;SDS011;11853;48.080;11.960;2023-02-01T05:48:41;6.35;;;4.18;;
23362;SDS011;11853;48.080;11.960;2023-02-01T05:51:08;4.32;;;3.92;;
23362;SDS011;11853;48.080;11.960;2023-02-01T05:53:34;4.20;;;3.80;;
23362;SDS011;11853;48.080;11.960;2023-02-01T05:55:59;4.22;;;3.85;;
23362;SDS011;11853;48.080;11.960;2023-02-01T05:58:25;6.85;;;3.92;;
23362;SDS011;11853;48.080;11.960;2023-02-01T06:00:51;5.85;;;4.15;;
23362;SDS011;11853;48.080;11.960;2023-02-01T06:03:17;7.57;;;4.45;;
23362;SDS011;11853;48.080;11.960;2023-02-01T06:05:46;4.95;;;4.25;;
23362;SDS011;11853;48.080;11.960;2023-02-01T06:08:12;4.90;;;4.40;;
23362;SDS011;11853;48.080;11.960;2023-02-01T06:10:38;4.95;;;4.43;;
23362;SDS011;11853;48.080;11.960;2023-02-01T06:13:04;5.28;;;4.53;;
23362;SDS011;11853;48.080;11.960;2023-02-01T06:15:30;4.90;;;3.67;;
23362;SDS011;11853;48.080;11.960;2023-02-01T06:17:56;4.40;;;4.00;;
23362;SDS011;11853;48.080;11.960;2023-02-01T06:20:22;5.00;;;4.50;;
23362;SDS011;11853;48.080;11.960;2023-02-01T06:22:47;4.85;;;4.35;;
23362;SDS011;11853;48.080;11.960;2023-02-01T06:25:13;5.47;;;4.10;;
23362;SDS011;11853;48.080;11.960;2023-02-01T06:27:39;5.57;;;4.30;;
23362;SDS011;11853;48.080;11.960;2023-02-01T06:30:05;4.72;;;4.20;;
23362;SDS011;11853;48.080;11.960;2023-02-01T06:32:31;5.00;;;4.18;;
23362;SDS011;11853;48.080;11.960;2023-02-01T06:34:58;5.10;;;4.60;;
23362;SDS011;11853;48.080;11.960;2023-02-01T06:37:25;5.18;;;4.40;;
23362;SDS011;11853;48.080;11.960;2023-02-01T06:39:52;5.03;;;4.53;;
23362;SDS011;11853;48.080;11.960;2023-02-01T06:42:18;6.35;;;4.75;;
23362;SDS011;11853;48.080;11.960;2023-02-01T06:44:44;5.80;;;4.30;;
23362;SDS011;11853;48.080;11.960;2023-02-01T06:47:10;5.97;;;4.03;;
23362;SDS011;11853;48.080;11.960;2023-02-01T06:49:35;6.82;;;3.85;;
23362;SDS011;11853;48.080;11.960;2023-02-01T06:52:01;5.03;;;4.25;;
23362;SDS011;11853;48.080;11.960;2023-02-01T06:54:27;6.65;;;4.45;;
23362;SDS011;11853;48.080;11.960;2023-02-01T06:56:53;5.25;;;4.65;;
23362;SDS011;11853;48.080;11.960;2023-02-01T06:59:18;5.05;;;4.55;;
23362;SDS011;11853;48.080;11.960;2023-02-01T07:01:44;7.13;;;4.63;;
23362;SDS011;11853;48.080;11.960;2023-02-01T07:04:12;5.22;;;4.30;;
23362;SDS011;11853;48.080;11.960;2023-02-01T07:06:38;4.82;;;4.32;;
23362;SDS011;11853;48.080;11.960;2023-02-01T07:09:04;4.80;;;4.05;;
23362;SDS011;11853;48.080;11.960;2023-02-01T07:11:36;5.22;;;4.38;;
23362;SDS011;11853;48.080;11.960;2023-02-01T07:14:05;4.63;;;3.92;;
23362;SDS011;11853;48.080;11.960;2023-02-01T07:16:31;4.60;;;4.20;;
23362;SDS011;11853;48.080;11.960;2023-02-01T07:18:57;4.95;;;4.05;;
23362;SDS011;11853;48.080;11.960;2023-02-01T07:21:23;5.68;;;4.55;;
23362;SDS011;11853;48.080;11.960;2023-02-01T07:23:49;5.22;;;4.55;;
23362;SDS011;11853;48.080;11.960;2023-02-01T07:26:14;4.53;;;4.00;;
23362;SDS011;11853;48.080;11.960;2023-02-01T07:28:41;6.57;;;4.80;;
23362;SDS011;11853;48.080;11.960;2023-02-01T07:31:08;4.72;;;3.97;;
23362;SDS011;11853;48.080;11.960;2023-02-01T07:33:36;4.50;;;4.10;;
23362;SDS011;11853;48.080;11.960;2023-02-01T07:36:05;3.97;;;3.60;;
23362;SDS011;11853;48.080;11.960;2023-02-01T07:38:32;5.53;;;3.83;;
23362;SDS011;11853;48.080;11.960;2023-02-01T07:40:58;4.30;;;3.70;;
23362;SDS011;11853;48.080;11.960;2023-02-01T07:43:25;4.53;;;4.03;;
23362;SDS011;11853;48.080;11.960;2023-02-01T07:45:52;5.32;;;4.47;;
23362;SDS011;11853;48.080;11.960;2023-02-01T07:48:19;4.70;;;4.20;;
23362;SDS011;11853;48.080;11.960;2023-02-01T07:50:45;6.45;;;4.18;;
23362;SDS011;11853;48.080;11.960;2023-02-01T07:53:11;4.03;;;3.63;;
23362;SDS011;11853;48.080;11.960;2023-02-01T07:55:40;5.07;;;3.60;;
23362;SDS011;11853;48.080;11.960;2023-02-01T07:58:06;4.78;;;3.53;;
23362;SDS011;11853;48.080;11.960;2023-02-01T08:00:32;3.78;;;3.38;;
23362;SDS011;11853;48.080;11.960;2023-02-01T08:03:16;4.95;;;3.42;;
23362;SDS011;11853;48.080;11.960;2023-02-01T08:05:42;5.38;;;3.10;;
23362;SDS011;11853;48.080;11.960;2023-02-01T08:08:08;3.75;;;3.05;;
23362;SDS011;11853;48.080;11.960;2023-02-01T08:10:33;3.67;;;2.75;;
23362;SDS011;11853;48.080;11.960;2023-02-01T08:13:00;5.38;;;3.65;;
23362;SDS011;11853;48.080;11.960;2023-02-01T08:15:27;12.88;;;4.00;;
23362;SDS011;11853;48.080;11.960;2023-02-01T08:17:54;4.00;;;3.30;;
23362;SDS011;11853;48.080;11.960;2023-02-01T08:20:20;3.35;;;2.97;;
23362;SDS011;11853;48.080;11.960;2023-02-01T08:22:47;4.28;;;3.30;;
23362;SDS011;11853;48.080;11.960;2023-02-01T08:25:14;3.88;;;2.67;;
23362;SDS011;11853;48.080;11.960;2023-02-01T08:27:39;4.30;;;2.90;;
23362;SDS011;11853;48.080;11.960;2023-02-01T08:30:05;3.47;;;3.10;;
23362;SDS011;11853;48.080;11.960;2023-02-01T08:32:32;3.90;;;2.92;;
23362;SDS011;11853;48.080;11.960;2023-02-01T08:34:58;3.60;;;3.30;;
23362;SDS011;11853;48.080;11.960;2023-02-01T08:37:24;3.88;;;3.20;;
23362;SDS011;11853;48.080;11.960;2023-02-01T08:39:50;4.70;;;2.80;;
23362;SDS011;11853;48.080;11.960;2023-02-01T08:42:16;3.88;;;3.47;;
23362;SDS011;11853;48.080;11.960;2023-02-01T08:45:00;3.30;;;3.00;;
23362;SDS011;11853;48.080;11.960;2023-02-01T08:47:27;3.67;;;2.97;;
23362;SDS011;11853;48.080;11.960;2023-02-01T08:49:55;3.30;;;3.00;;
23362;SDS011;11853;48.080;11.960;2023-02-01T08:52:21;3.95;;;3.55;;
23362;SDS011;11853;48.080;11.960;2023-02-01T08:54:47;4.65;;;3.40;;
23362;SDS011;11853;48.080;11.960;2023-02-01T08:57:14;3.45;;;3.15;;
23362;SDS011;11853;48.080;11.960;2023-02-01T08:59:39;3.67;;;3.38;;
23362;SDS011;11853;48.080;11.960;2023-02-01T09:02:05;3.80;;;3.10;;
23362;SDS011;11853;48.080;11.960;2023-02-01T09:04:33;4.82;;;3.53;;
23362;SDS011;11853;48.080;11.960;2023-02-01T09:06:58;3.20;;;2.90;;
23362;SDS011;11853;48.080;11.960;2023-02-01T09:09:24;3.97;;;2.92;;
23362;SDS011;11853;48.080;11.960;2023-02-01T09:11:52;3.88;;;3.20;;
23362;SDS011;11853;48.080;11.960;2023-02-01T09:14:18;4.03;;;3.35;;
23362;SDS011;11853;48.080;11.960;2023-02-01T09:16:43;3.25;;;2.97;;
23362;SDS011;11853;48.080;11.960;2023-02-01T09:19:09;3.92;;;2.80;;
23362;SDS011;11853;48.080;11.960;2023-02-01T09:21:35;3.58;;;3.28;;
23362;SDS011;11853;48.080;11.960;2023-02-01T09:24:00;3.75;;;3.38;;
23362;SDS011;11853;48.080;11.960;2023-02-01T09:26:26;3.50;;;3.20;;
23362;SDS011;11853;48.080;11.960;2023-02-01T09:28:52;3.15;;;2.85;;
23362;SDS011;11853;48.080;11.960;2023-02-01T09:31:18;3.00;;;2.80;;
23362;SDS011;11853;48.080;11.960;2023-02-01T09:33:45;3.03;;;2.80;;
23362;SDS011;11853;48.080;11.960;2023-02-01T09:36:10;5.50;;;3.42;;
23362;SDS011;11853;48.080;11.960;2023-02-01T09:38:36;3.05;;;2.75;;
23362;SDS011;11853;48.080;11.960;2023-02-01T09:41:06;3.75;;;2.80;;
23362;SDS011;11853;48.080;11.960;2023-02-01T09:46:21;3.20;;;2.88;;
23362;SDS011;11853;48.080;11.960;2023-02-01T09:48:52;2.80;;;2.47;;
23362;SDS011;11853;48.080;11.960;2023-02-01T09:51:20;2.92;;;2.72;;
23362;SDS011;11853;48.080;11.960;2023-02-01T09:56:40;5.35;;;2.80;;
23362;SDS011;11853;48.080;11.960;2023-02-01T10:02:00;2.85;;;2.65;;
23362;SDS011;11853;48.080;11.960;2023-02-01T10:04:28;4.35;;;3.42;;
23362;SDS011;11853;48.080;11.960;2023-02-01T10:09:33;3.38;;;2.40;;
23362;SDS011;11853;48.080;11.960;2023-02-01T10:12:28;3.80;;;2.78;;
23362;SDS011;11853;48.080;11.960;2023-02-01T10:21:35;3.75;;;3.00;;
23362;SDS011;11853;48.080;11.960;2023-02-01T10:24:17;2.75;;;2.42;;
23362;SDS011;11853;48.080;11.960;2023-02-01T10:27:12;3.70;;;2.83;;
23362;SDS011;11853;48.080;11.960;2023-02-01T10:29:39;5.80;;;3.17;;
23362;SDS011;11853;48.080;11.960;2023-02-01T10:32:14;2.65;;;2.25;;
23362;SDS011;11853;48.080;11.960;2023-02-01T10:34:42;2.33;;;2.13;;
23362;SDS011;11853;48.080;11.960;2023-02-01T10:37:20;2.70;;;2.25;;
23362;SDS011;11853;48.080;11.960;2023-02-01T10:39:48;2.95;;;2.30;;
23362;SDS011;11853;48.080;11.960;2023-02-01T10:42:17;2.38;;;2.13;;
23362;SDS011;11853;48.080;11.960;2023-02-01T10:44:45;3.60;;;3.17;;
23362;SDS011;11853;48.080;11.960;2023-02-01T10:47:13;2.60;;;2.40;;
23362;SDS011;11853;48.080;11.960;2023-02-01T10:49:43;2.92;;;2.63;;
23362;SDS011;11853;48.080;11.960;2023-02-01T10:52:29;3.17;;;2.53;;
23362;SDS011;11853;48.080;11.960;2023-02-01T10:58:19;3.25;;;2.25;;
23362;SDS011;11853;48.080;11.960;2023-02-01T11:01:08;2.55;;;2.30;;
23362;SDS011;11853;48.080;11.960;2023-02-01T11:03:44;2.40;;;2.20;;
23362;SDS011;11853;48.080;11.960;2023-02-01T11:08:51;2.45;;;2.25;;
23362;SDS011;11853;48.080;11.960;2023-02-01T11:11:19;4.53;;;2.70;;
23362;SDS011;11853;48.080;11.960;2023-02-01T11:13:51;5.60;;;2.38;;
23362;SDS011;11853;48.080;11.960;2023-02-01T11:16:36;2.88;;;2.25;;
23362;SDS011;11853;48.080;11.960;2023-02-01T11:19:03;2.58;;;1.95;;
23362;SDS011;11853;48.080;11.960;2023-02-01T11:21:30;3.97;;;2.30;;
23362;SDS011;11853;48.080;11.960;2023-02-01T11:24:03;3.17;;;2.33;;
23362;SDS011;11853;48.080;11.960;2023-02-01T11:26:34;3.08;;;2.40;;
23362;SDS011;11853;48.080;11.960;2023-02-01T11:29:11;2.35;;;2.08;;
23362;SDS011;11853;48.080;11.960;2023-02-01T11:31:42;2.60;;;2.15;;
23362;SDS011;11853;48.080;11.960;2023-02-01T11:34:44;2.85;;;2.47;;
23362;SDS011;11853;48.080;11.960;2023-02-01T11:37:42;3.40;;;2.47;;
23362;SDS011;11853;48.080;11.960;2023-02-01T11:42:58;2.92;;;2.67;;
23362;SDS011;11853;48.080;11.960;2023-02-01T11:45:32;2.60;;;2.40;;
23362;SDS011;11853;48.080;11.960;2023-02-01T11:48:07;2.95;;;2.75;;
23362;SDS011;11853;48.080;11.960;2023-02-01T11:53:09;6.35;;;2.75;;
23362;SDS011;11853;48.080;11.960;2023-02-01T11:56:05;3.38;;;2.90;;
23362;SDS011;11853;48.080;11.960;2023-02-01T11:59:11;3.08;;;2.78;;
23362;SDS011;11853;48.080;11.960;2023-02-01T12:04:56;5.18;;;3.17;;
23362;SDS011;11853;48.080;11.960;2023-02-01T12:13:13;4.43;;;3.15;;
23362;SDS011;11853;48.080;11.960;2023-02-01T12:16:02;3.28;;;2.88;;
23362;SDS011;11853;48.080;11.960;2023-02-01T12:19:13;3.67;;;3.33;;
23362;SDS011;11853;48.080;11.960;2023-02-01T12:28:02;3.45;;;3.15;;
23362;SDS011;11853;48.080;11.960;2023-02-01T12:33:56;4.28;;;3.35;;
23362;SDS011;11853;48.080;11.960;2023-02-01T12:39:21;4.38;;;3.10;;
23362;SDS011;11853;48.080;11.960;2023-02-01T12:41:57;3.55;;;3.05;;
23362;SDS011;11853;48.080;11.960;2023-02-01T12:44:40;6.00;;;3.83;;
23362;SDS011;11853;48.080;11.960;2023-02-01T12:49:54;8.82;;;3.33;;
23362;SDS011;11853;48.080;11.960;2023-02-01T12:52:29;5.30;;;3.10;;
23362;SDS011;11853;48.080;11.960;2023-02-01T12:58:06;7.28;;;3.20;;
23362;SDS011;11853;48.080;11.960;2023-02-01T13:00:58;4.43;;;3.15;;
23362;SDS011;11853;48.080;11.960;2023-02-01T13:03:34;6.22;;;3.55;;
23362;SDS011;11853;48.080;11.960;2023-02-01T13:06:10;4.83;;;3.00;;
23362;SDS011;11853;48.080;11.960;2023-02-01T13:11:15;6.55;;;3.58;;
23362;SDS011;11853;48.080;11.960;2023-02-01T13:16:40;4.35;;;2.70;;
23362;SDS011;11853;48.080;11.960;2023-02-01T13:22:15;4.35;;;2.80;;
23362;SDS011;11853;48.080;11.960;2023-02-01T13:24:42;7.35;;;3.22;;
23362;SDS011;11853;48.080;11.960;2023-02-01T13:27:14;6.03;;;3.25;;
23362;SDS011;11853;48.080;11.960;2023-02-01T13:29:45;5.13;;;3.08;;
23362;SDS011;11853;48.080;11.960;2023-02-01T13:32:39;5.22;;;3.20;;
23362;SDS011;11853;48.080;11.960;2023-02-01T13:35:26;7.82;;;3.15;;
23362;SDS011;11853;48.080;11.960;2023-02-01T13:40:41;3.65;;;2.65;;
23362;SDS011;11853;48.080;11.960;2023-02-01T13:43:19;5.22;;;2.83;;
23362;SDS011;11853;48.080;11.960;2023-02-01T13:45:51;7.32;;;3.08;;
23362;SDS011;11853;48.080;11.960;2023-02-01T13:48:23;5.93;;;3.10;;
23362;SDS011;11853;48.080;11.960;2023-02-01T13:51:11;5.35;;;3.13;;
23362;SDS011;11853;48.080;11.960;2023-02-01T13:53:43;3.22;;;2.85;;
23362;SDS011;11853;48.080;11.960;2023-02-01T13:56:13;5.20;;;3.08;;
23362;SDS011;11853;48.080;11.960;2023-02-01T13:58:45;3.22;;;2.80;;
23362;SDS011;11853;48.080;11.960;2023-02-01T14:03:48;5.57;;;3.00;;
23362;SDS011;11853;48.080;11.960;2023-02-01T14:06:38;4.15;;;3.10;;
23362;SDS011;11853;48.080;11.960;2023-02-01T14:16:42;6.35;;;4.95;;
23362;SDS011;11853;48.080;11.960;2023-02-01T14:19:27;9.52;;;5.63;;
23362;SDS011;11853;48.080;11.960;2023-02-01T14:21:54;7.45;;;5.45;;
23362;SDS011;11853;48.080;11.960;2023-02-01T14:24:25;4.82;;;3.58;;
23362;SDS011;11853;48.080;11.960;2023-02-01T14:29:50;4.85;;;3.25;;
23362;SDS011;11853;48.080;11.960;2023-02-01T14:32:23;3.17;;;2.88;;
23362;SDS011;11853;48.080;11.960;2023-02-01T14:34:52;5.47;;;3.72;;
23362;SDS011;11853;48.080;11.960;2023-02-01T14:47:45;4.80;;;3.38;;
23362;SDS011;11853;48.080;11.960;2023-02-01T14:50:17;3.85;;;3.10;;
23362;SDS011;11853;48.080;11.960;2023-02-01T14:53:32;3.38;;;3.08;;
23362;SDS011;11853;48.080;11.960;2023-02-01T14:55:43;5.38;;;3.30;;
23362;SDS011;11853;48.080;11.960;2023-02-01T15:01:22;3.22;;;2.92;;
23362;SDS011;11853;48.080;11.960;2023-02-01T15:04:09;5.88;;;3.42;;
23362;SDS011;11853;48.080;11.960;2023-02-01T15:06:40;5.38;;;3.30;;
23362;SDS011;11853;48.080;11.960;2023-02-01T15:09:23;5.97;;;3.70;;
23362;SDS011;11853;48.080;11.960;2023-02-01T15:14:46;5.22;;;2.60;;
23362;SDS011;11853;48.080;11.960;2023-02-01T15:17:29;5.07;;;2.85;;
23362;SDS011;11853;48.080;11.960;2023-02-01T15:20:02;4.95;;;2.67;;
23362;SDS011;11853;48.080;11.960;2023-02-01T15:22:38;6.95;;;3.17;;
23362;SDS011;11853;48.080;11.960;2023-02-01T15:25:04;3.85;;;2.95;;
23362;SDS011;11853;48.080;11.960;2023-02-01T15:27:31;5.05;;;3.00;;
23362;SDS011;11853;48.080;11.960;2023-02-01T15:30:05;4.82;;;2.90;;
23362;SDS011;11853;48.080;11.960;2023-02-01T15:32:41;4.97;;;2.50;;
23362;SDS011;11853;48.080;11.960;2023-02-01T15:35:31;3.33;;;2.55;;
23362;SDS011;11853;48.080;11.960;2023-02-01T15:46:22;4.22;;;2.47;;
23362;SDS011;11853;48.080;11.960;2023-02-01T15:49:01;5.82;;;2.90;;
23362;SDS011;11853;48.080;11.960;2023-02-01T15:51:29;5.68;;;2.50;;
23362;SDS011;11853;48.080;11.960;2023-02-01T15:54:04;6.43;;;2.70;;
23362;SDS011;11853;48.080;11.960;2023-02-01T15:56:35;5.88;;;2.58;;
23362;SDS011;11853;48.080;11.960;2023-02-01T15:59:04;5.43;;;2.60;;
23362;SDS011;11853;48.080;11.960;2023-02-01T16:01:38;7.40;;;3.10;;
23362;SDS011;11853;48.080;11.960;2023-02-01T16:06:47;5.72;;;3.17;;
23362;SDS011;11853;48.080;11.960;2023-02-01T16:09:24;5.03;;;2.75;;
23362;SDS011;11853;48.080;11.960;2023-02-01T16:12:02;6.38;;;3.35;;
23362;SDS011;11853;48.080;11.960;2023-02-01T16:14:29;5.20;;;3.50;;
23362;SDS011;11853;48.080;11.960;2023-02-01T16:16:56;4.60;;;3.17;;
23362;SDS011;11853;48.080;11.960;2023-02-01T16:19:22;7.72;;;3.13;;
23362;SDS011;11853;48.080;11.960;2023-02-01T16:21:53;4.57;;;3.50;;
23362;SDS011;11853;48.080;11.960;2023-02-01T16:24:21;4.15;;;2.92;;
23362;SDS011;11853;48.080;11.960;2023-02-01T16:26:48;9.77;;;3.78;;
23362;SDS011;11853;48.080;11.960;2023-02-01T16:29:13;4.20;;;2.90;;
23362;SDS011;11853;48.080;11.960;2023-02-01T16:31:41;5.57;;;3.22;;
23362;SDS011;11853;48.080;11.960;2023-02-01T16:34:10;3.95;;;2.53;;
23362;SDS011;11853;48.080;11.960;2023-02-01T16:36:40;6.10;;;2.97;;
23362;SDS011;11853;48.080;11.960;2023-02-01T16:39:07;5.22;;;3.42;;
23362;SDS011;11853;48.080;11.960;2023-02-01T16:41:36;6.70;;;2.92;;
23362;SDS011;11853;48.080;11.960;2023-02-01T16:44:02;4.05;;;2.60;;
23362;SDS011;11853;48.080;11.960;2023-02-01T16:46:28;6.20;;;3.42;;
23362;SDS011;11853;48.080;11.960;2023-02-01T16:48:58;5.30;;;2.78;;
23362;SDS011;11853;48.080;11.960;2023-02-01T16:51:26;5.68;;;2.90;;
23362;SDS011;11853;48.080;11.960;2023-02-01T16:53:57;7.00;;;3.25;;
23362;SDS011;11853;48.080;11.960;2023-02-01T16:56:24;5.25;;;2.97;;
23362;SDS011;11853;48.080;11.960;2023-02-01T16:58:54;5.97;;;3.08;;